createdAt,value
2018-09-04T00:00:33.498Z,6.40
2018-09-04T00:03:02.168Z,5.63
2018-09-04T00:05:30.827Z,6.00
2018-09-04T00:07:59.510Z,5.13
2018-09-04T00:10:28.181Z,5.53
2018-09-04T00:12:56.877Z,6.37
2018-09-04T00:15:25.569Z,6.33
2018-09-04T00:17:54.216Z,6.40
2018-09-04T00:22:57.737Z,6.40
2018-09-04T00:25:26.413Z,5.90
2018-09-04T00:27:55.111Z,4.97
2018-09-04T00:30:23.789Z,5.77
2018-09-04T00:32:52.416Z,6.47
2018-09-04T00:35:21.106Z,5.50
2018-09-04T00:37:49.769Z,5.80
2018-09-04T00:40:18.445Z,5.50
2018-09-04T00:42:47.090Z,5.67
2018-09-04T00:45:15.771Z,5.90
2018-09-04T00:47:44.504Z,5.67
2018-09-04T00:50:13.172Z,6.23
2018-09-04T00:52:41.836Z,5.33
2018-09-04T00:55:10.563Z,5.70
2018-09-04T00:57:39.208Z,6.00
2018-09-04T01:00:07.915Z,5.70
2018-09-04T01:05:11.499Z,6.13
2018-09-04T01:07:40.173Z,6.20
2018-09-04T01:10:08.843Z,5.47
2018-09-04T01:12:37.516Z,5.70
2018-09-04T01:15:06.307Z,6.30
2018-09-04T01:17:34.978Z,5.47
2018-09-04T01:20:03.680Z,5.50
2018-09-04T01:22:32.348Z,5.83
2018-09-04T01:25:00.988Z,5.47
2018-09-04T01:27:29.664Z,5.40
2018-09-04T01:29:58.314Z,5.13
2018-09-04T01:32:26.984Z,5.20
2018-09-04T01:34:55.626Z,5.90
2018-09-04T01:37:24.281Z,5.83
2018-09-04T01:39:52.948Z,5.43
2018-09-04T01:42:21.616Z,5.30
2018-09-04T01:44:50.254Z,5.60
2018-09-04T01:47:18.933Z,5.27
2018-09-04T01:49:47.582Z,5.93
2018-09-04T01:52:16.395Z,5.30
2018-09-04T01:54:45.047Z,5.70
2018-09-04T01:57:13.880Z,5.73
2018-09-04T01:59:42.527Z,5.50
2018-09-04T02:02:11.189Z,5.83
2018-09-04T02:04:39.845Z,5.70
2018-09-04T02:07:08.521Z,5.63
2018-09-04T02:09:37.179Z,5.87
2018-09-04T02:12:05.863Z,5.57
2018-09-04T02:14:34.490Z,5.93
2018-09-04T02:17:03.205Z,6.23
2018-09-04T02:19:32.364Z,5.67
2018-09-04T02:22:01.093Z,5.60
2018-09-04T02:24:29.765Z,5.67
2018-09-04T02:26:58.424Z,5.87
2018-09-04T02:29:27.055Z,5.63
2018-09-04T02:31:55.700Z,5.80
2018-09-04T02:34:24.359Z,5.93
2018-09-04T02:36:53.124Z,5.40
2018-09-04T02:39:21.782Z,5.60
2018-09-04T02:41:50.476Z,5.53
2018-09-04T02:44:19.154Z,5.60
2018-09-04T02:46:47.811Z,5.77
2018-09-04T02:49:16.459Z,5.90
2018-09-04T02:51:45.120Z,5.60
2018-09-04T02:54:13.842Z,5.00
2018-09-04T02:56:42.476Z,5.40
2018-09-04T02:59:11.153Z,5.40
2018-09-04T03:01:39.805Z,5.47
2018-09-04T03:04:08.577Z,5.53
2018-09-04T03:06:37.238Z,5.07
2018-09-04T03:09:06.576Z,5.33
2018-09-04T03:11:35.324Z,5.23
2018-09-04T03:14:04.002Z,5.17
2018-09-04T03:16:32.636Z,4.93
2018-09-04T03:19:01.288Z,5.20
2018-09-04T03:21:29.928Z,5.20
2018-09-04T03:23:58.598Z,5.17
2018-09-04T03:26:27.259Z,5.83
2018-09-04T03:28:55.918Z,5.83
2018-09-04T03:31:24.569Z,5.60
2018-09-04T03:33:53.218Z,5.53
2018-09-04T03:36:21.864Z,5.10
2018-09-04T03:38:50.508Z,5.20
2018-09-04T03:41:19.149Z,4.93
2018-09-04T03:43:47.820Z,5.40
2018-09-04T03:46:16.511Z,5.47
2018-09-04T03:48:45.173Z,5.00
2018-09-04T03:51:13.826Z,5.70
2018-09-04T03:53:42.668Z,5.20
2018-09-04T03:56:11.323Z,4.70
2018-09-04T03:58:40.048Z,4.93
2018-09-04T04:01:08.667Z,5.17
2018-09-04T04:03:37.632Z,5.03
2018-09-04T04:06:06.357Z,5.07
2018-09-04T04:08:35.147Z,5.33
2018-09-04T04:11:03.839Z,5.13
2018-09-04T04:13:32.545Z,5.03
2018-09-04T04:16:01.255Z,4.90
2018-09-04T04:18:29.954Z,4.73
2018-09-04T04:20:59.477Z,5.20
2018-09-04T04:23:28.907Z,5.37
2018-09-04T04:25:59.057Z,4.60
2018-09-04T04:28:27.726Z,5.37
2018-09-04T04:30:56.385Z,4.97
2018-09-04T04:33:25.033Z,5.13
2018-09-04T04:35:53.699Z,5.37
2018-09-04T04:38:22.443Z,5.60
2018-09-04T04:40:51.079Z,5.53
2018-09-04T04:43:19.750Z,5.33
2018-09-04T04:45:48.413Z,5.50
2018-09-04T04:48:17.131Z,4.90
2018-09-04T04:50:45.780Z,5.10
2018-09-04T04:53:14.564Z,4.83
2018-09-04T04:55:43.220Z,4.90
2018-09-04T04:58:11.929Z,5.03
2018-09-04T05:00:40.693Z,4.67
2018-09-04T05:03:09.376Z,5.60
2018-09-04T05:05:38.016Z,5.27
2018-09-04T05:08:06.675Z,4.90
2018-09-04T05:10:35.360Z,4.93
2018-09-04T05:13:04.164Z,6.03
2018-09-04T05:15:32.835Z,4.80
2018-09-04T05:18:01.488Z,4.90
2018-09-04T05:20:30.317Z,5.00
2018-09-04T05:22:59.084Z,5.07
2018-09-04T05:25:27.751Z,5.13
2018-09-04T05:27:56.512Z,5.37
2018-09-04T05:30:25.163Z,4.57
2018-09-04T05:33:00.104Z,5.17
2018-09-04T05:35:32.830Z,5.10
2018-09-04T05:38:01.463Z,5.20
2018-09-04T05:40:30.239Z,6.37
2018-09-04T05:43:01.117Z,4.90
2018-09-04T05:45:30.907Z,4.37
2018-09-04T05:48:05.759Z,4.63
2018-09-04T05:50:34.407Z,4.73
2018-09-04T05:53:03.050Z,5.00
2018-09-04T05:55:31.762Z,4.70
2018-09-04T05:58:00.636Z,4.70
2018-09-04T06:00:32.505Z,4.67
2018-09-04T06:03:01.292Z,4.47
2018-09-04T06:05:30.006Z,5.30
2018-09-04T06:07:58.651Z,3.77
2018-09-04T06:10:27.320Z,4.73
2018-09-04T06:12:55.984Z,4.17
2018-09-04T06:15:24.740Z,4.60
2018-09-04T06:17:53.425Z,4.77
2018-09-04T06:20:22.105Z,4.10
2018-09-04T06:22:50.807Z,3.70
2018-09-04T06:25:19.449Z,4.07
2018-09-04T06:27:48.205Z,3.90
2018-09-04T06:30:16.859Z,4.17
2018-09-04T06:32:45.495Z,5.17
2018-09-04T06:35:14.225Z,3.87
2018-09-04T06:37:42.851Z,4.00
2018-09-04T06:40:11.537Z,4.23
2018-09-04T06:42:40.353Z,4.00
2018-09-04T06:45:09.148Z,4.37
2018-09-04T06:47:37.870Z,4.10
2018-09-04T06:50:06.534Z,4.10
2018-09-04T06:52:35.184Z,3.80
2018-09-04T06:55:03.902Z,4.43
2018-09-04T06:57:32.537Z,4.23
2018-09-04T07:00:01.160Z,4.30
2018-09-04T07:02:29.828Z,3.87
2018-09-04T07:04:58.497Z,4.30
2018-09-04T07:07:27.175Z,3.87
2018-09-04T07:09:55.812Z,3.80
2018-09-04T07:12:24.495Z,3.93
2018-09-04T07:14:53.192Z,4.13
2018-09-04T07:17:21.868Z,5.20
2018-09-04T07:19:50.565Z,4.53
2018-09-04T07:22:19.212Z,3.77
2018-09-04T07:24:47.862Z,4.27
2018-09-04T07:27:16.516Z,4.47
2018-09-04T07:29:45.160Z,4.23
2018-09-04T07:32:13.800Z,4.10
2018-09-04T07:34:42.476Z,4.30
2018-09-04T07:37:11.332Z,4.30
2018-09-04T07:39:40.041Z,4.27
2018-09-04T07:42:08.733Z,4.03
2018-09-04T07:44:37.416Z,4.03
2018-09-04T07:47:06.752Z,4.20
2018-09-04T07:49:35.482Z,3.73
2018-09-04T07:52:04.164Z,3.83
2018-09-04T07:54:32.808Z,4.20
2018-09-04T07:57:01.576Z,3.80
2018-09-04T07:59:30.240Z,4.10
2018-09-04T08:01:58.867Z,5.03
2018-09-04T08:04:27.552Z,5.30
2018-09-04T08:06:56.241Z,4.30
2018-09-04T08:09:24.932Z,4.80
2018-09-04T08:11:53.635Z,4.73
2018-09-04T08:14:22.292Z,4.60
2018-09-04T08:16:50.943Z,4.50
2018-09-04T08:19:19.617Z,4.60
2018-09-04T08:21:48.265Z,4.30
2018-09-04T08:24:16.920Z,4.37
2018-09-04T08:26:45.645Z,4.20
2018-09-04T08:29:14.353Z,4.30
2018-09-04T08:31:42.995Z,4.33
2018-09-04T08:34:11.645Z,3.80
2018-09-04T08:36:40.348Z,7.13
2018-09-04T08:39:09.123Z,3.80
2018-09-04T08:41:37.842Z,4.17
2018-09-04T08:44:06.476Z,3.40
2018-09-04T08:46:35.336Z,3.70
2018-09-04T08:49:03.978Z,4.20
2018-09-04T08:51:32.813Z,3.80
2018-09-04T08:54:01.454Z,4.07
2018-09-04T08:56:30.116Z,3.77
2018-09-04T08:58:58.800Z,4.57
2018-09-04T09:01:27.557Z,4.13
2018-09-04T09:03:56.190Z,4.00
2018-09-04T09:06:24.944Z,3.83
2018-09-04T09:08:53.600Z,4.60
2018-09-04T09:11:22.243Z,4.63
2018-09-04T09:13:50.890Z,4.67
2018-09-04T09:16:19.564Z,4.40
2018-09-04T09:18:48.206Z,4.23
2018-09-04T09:21:16.933Z,3.60
2018-09-04T09:23:45.598Z,4.23
2018-09-04T09:26:14.257Z,3.67
2018-09-04T09:28:42.912Z,3.73
2018-09-04T09:31:11.589Z,3.40
2018-09-04T09:33:40.351Z,3.97
2018-09-04T09:36:09.016Z,3.73
2018-09-04T09:38:37.676Z,3.50
2018-09-04T09:41:06.340Z,3.70
2018-09-04T09:43:35.031Z,3.63
2018-09-04T09:46:03.775Z,3.53
2018-09-04T09:48:37.767Z,3.80
2018-09-04T09:51:06.556Z,3.57
2018-09-04T09:53:35.436Z,4.40
2018-09-04T09:56:03.866Z,3.80
2018-09-04T09:58:32.511Z,4.27
2018-09-04T10:01:06.427Z,4.30
2018-09-04T10:03:40.520Z,5.33
2018-09-04T10:06:09.189Z,3.87
2018-09-04T10:08:37.893Z,3.77
2018-09-04T10:11:06.757Z,4.00
2018-09-04T10:13:35.471Z,4.20
2018-09-04T10:16:04.153Z,3.90
2018-09-04T10:18:32.819Z,3.93
2018-09-04T10:21:01.487Z,5.50
2018-09-04T10:23:30.141Z,4.07
2018-09-04T10:25:58.867Z,3.77
2018-09-04T10:28:27.695Z,3.70
2018-09-04T10:30:56.370Z,4.10
2018-09-04T10:33:25.007Z,4.65
2018-09-04T10:35:53.741Z,4.80
2018-09-04T10:38:25.017Z,4.30
2018-09-04T10:40:55.528Z,3.90
2018-09-04T10:43:27.969Z,3.40
2018-09-04T10:46:04.785Z,3.70
2018-09-04T10:48:33.457Z,3.77
2018-09-04T10:51:02.374Z,3.70
2018-09-04T10:53:31.043Z,4.33
2018-09-04T10:55:59.706Z,3.65
2018-09-04T10:58:28.374Z,3.83
2018-09-04T11:00:57.013Z,3.95
2018-09-04T11:03:25.717Z,3.85
2018-09-04T11:05:54.366Z,4.20
2018-09-04T11:08:23.047Z,4.05
2018-09-04T11:10:51.717Z,5.10
2018-09-04T11:13:20.390Z,4.05
2018-09-04T11:15:49.063Z,4.67
2018-09-04T11:18:17.706Z,4.47
2018-09-04T11:20:46.352Z,4.30
2018-09-04T11:23:15.008Z,3.77
2018-09-04T11:25:43.661Z,3.80
2018-09-04T11:28:12.387Z,3.65
2018-09-04T11:30:41.120Z,4.30
2018-09-04T11:33:09.779Z,4.30
2018-09-04T11:35:38.457Z,4.25
2018-09-04T11:38:07.129Z,3.92
2018-09-04T11:40:35.847Z,3.87
2018-09-04T11:43:04.473Z,3.67
2018-09-04T11:45:33.203Z,3.92
2018-09-04T11:48:01.876Z,4.00
2018-09-04T11:50:30.504Z,3.67
2018-09-04T11:52:59.184Z,4.80
2018-09-04T11:55:27.954Z,4.00
2018-09-04T11:57:56.616Z,3.90
2018-09-04T12:00:30.353Z,4.10
2018-09-04T12:02:59.048Z,4.40
2018-09-04T12:05:27.695Z,4.03
2018-09-04T12:07:56.407Z,3.73
2018-09-04T12:10:25.068Z,3.77
2018-09-04T12:12:53.833Z,3.63
2018-09-04T12:15:22.398Z,3.80
2018-09-04T12:17:51.108Z,3.90
2018-09-04T12:20:28.238Z,4.27
2018-09-04T12:22:57.072Z,4.33
2018-09-04T12:25:26.112Z,6.40
2018-09-04T12:27:54.786Z,5.20
2018-09-04T12:30:23.564Z,5.00
2018-09-04T12:32:52.416Z,4.73
2018-09-04T12:35:21.072Z,5.30
2018-09-04T12:37:49.718Z,5.03
2018-09-04T12:40:18.386Z,5.60
2018-09-04T12:42:47.060Z,4.97
2018-09-04T12:45:15.749Z,5.50
2018-09-04T12:47:44.426Z,4.80
2018-09-04T12:50:13.100Z,6.07
2018-09-04T12:52:41.762Z,5.47
2018-09-04T12:55:10.472Z,4.90
2018-09-04T12:57:39.159Z,5.27
2018-09-04T13:00:08.500Z,4.97
2018-09-04T13:02:37.214Z,4.47
2018-09-04T13:05:05.854Z,4.30
2018-09-04T13:07:34.629Z,5.00
2018-09-04T13:10:03.316Z,4.60
2018-09-04T13:12:32.079Z,3.97
2018-09-04T13:15:00.739Z,4.90
2018-09-04T13:17:29.388Z,4.50
2018-09-04T13:19:58.045Z,4.27
2018-09-04T13:22:26.785Z,5.13
2018-09-04T13:24:55.483Z,4.20
2018-09-04T13:27:24.151Z,4.07
2018-09-04T13:29:52.821Z,4.63
2018-09-04T13:32:21.505Z,4.20
2018-09-04T13:34:50.150Z,4.20
2018-09-04T13:37:18.807Z,4.10
2018-09-04T13:39:50.974Z,4.60
2018-09-04T13:42:19.635Z,4.40
2018-09-04T13:44:48.403Z,4.00
2018-09-04T13:47:17.173Z,4.00
2018-09-04T13:49:46.212Z,4.10
2018-09-04T13:52:14.607Z,4.43
2018-09-04T13:54:43.219Z,4.00
2018-09-04T13:57:12.721Z,3.77
2018-09-04T13:59:41.523Z,3.87
2018-09-04T14:02:10.479Z,4.03
2018-09-04T14:04:39.256Z,3.83
2018-09-04T14:07:08.092Z,3.37
2018-09-04T14:09:36.994Z,4.53
2018-09-04T14:12:05.985Z,3.47
2018-09-04T14:14:34.891Z,3.70
2018-09-04T14:17:39.182Z,3.60
2018-09-04T14:20:08.116Z,3.57
2018-09-04T14:22:36.971Z,4.10
2018-09-04T14:25:05.740Z,3.97
2018-09-04T14:27:34.854Z,5.00
2018-09-04T14:30:17.153Z,5.03
2018-09-04T14:32:32.911Z,4.10
2018-09-04T14:35:01.950Z,4.17
2018-09-04T14:37:30.652Z,3.80
2018-09-04T14:39:59.457Z,4.43
2018-09-04T14:42:28.306Z,4.23
2018-09-04T14:44:57.088Z,3.87
2018-09-04T14:47:25.855Z,4.57
2018-09-04T14:49:54.634Z,5.37
2018-09-04T14:52:23.366Z,4.20
2018-09-04T14:54:52.138Z,4.13
2018-09-04T14:57:20.953Z,4.70
2018-09-04T14:59:49.752Z,4.20
2018-09-04T15:02:18.435Z,5.13
2018-09-04T15:04:47.236Z,4.90
2018-09-04T15:07:16.058Z,5.00
2018-09-04T15:09:44.817Z,4.50
2018-09-04T15:12:13.629Z,4.47
2018-09-04T15:14:42.418Z,6.37
2018-09-04T15:17:11.255Z,5.43
2018-09-04T15:19:40.059Z,4.53
2018-09-04T15:22:08.953Z,4.50
2018-09-04T15:24:37.779Z,4.10
2018-09-04T15:27:06.689Z,5.07
2018-09-04T15:29:35.385Z,4.90
2018-09-04T15:32:04.724Z,4.83
2018-09-04T15:34:33.427Z,5.17
2018-09-04T15:37:02.322Z,5.07
2018-09-04T15:39:31.063Z,4.63
2018-09-04T15:42:00.090Z,4.23
2018-09-04T15:44:28.920Z,4.50
2018-09-04T15:46:57.655Z,4.53
2018-09-04T15:49:31.744Z,4.37
2018-09-04T15:52:00.399Z,4.40
2018-09-04T15:54:29.111Z,4.00
2018-09-04T15:56:57.919Z,4.87
2018-09-04T15:59:26.627Z,3.70
2018-09-04T16:01:55.368Z,4.90
2018-09-04T16:04:24.161Z,5.70
2018-09-04T16:06:53.027Z,4.67
2018-09-04T16:09:21.878Z,5.00
2018-09-04T16:11:50.591Z,4.50
2018-09-04T16:14:19.387Z,4.30
2018-09-04T16:16:48.103Z,4.73
2018-09-04T16:19:16.997Z,3.57
2018-09-04T16:21:45.771Z,4.77
2018-09-04T16:24:14.530Z,4.67
2018-09-04T16:26:43.267Z,4.40
2018-09-04T16:29:11.983Z,4.83
2018-09-04T16:31:40.768Z,4.20
2018-09-04T16:34:10.014Z,3.77
2018-09-04T16:36:38.808Z,4.40
2018-09-04T16:39:07.591Z,3.87
2018-09-04T16:41:36.579Z,3.97
2018-09-04T16:44:08.579Z,4.20
2018-09-04T16:46:37.402Z,4.80
2018-09-04T16:49:06.226Z,4.43
2018-09-04T16:51:34.957Z,4.00
2018-09-04T16:54:03.750Z,4.23
2018-09-04T16:56:32.510Z,4.97
2018-09-04T16:59:01.297Z,5.10
2018-09-04T17:01:30.051Z,4.20
2018-09-04T17:03:58.858Z,4.23
2018-09-04T17:06:27.647Z,4.87
2018-09-04T17:08:56.431Z,4.20
2018-09-04T17:11:25.163Z,4.70
2018-09-04T17:13:53.931Z,5.13
2018-09-04T17:16:22.662Z,4.20
2018-09-04T17:18:51.623Z,3.93
2018-09-04T17:21:20.373Z,7.57
2018-09-04T17:23:49.110Z,7.17
2018-09-04T17:26:17.893Z,5.70
2018-09-04T17:28:46.635Z,4.27
2018-09-04T17:31:15.499Z,4.87
2018-09-04T17:33:44.263Z,4.40
2018-09-04T17:36:13.047Z,4.60
2018-09-04T17:38:41.759Z,6.57
2018-09-04T17:41:11.091Z,5.13
2018-09-04T17:43:39.811Z,4.80
2018-09-04T17:46:08.507Z,5.70
2018-09-04T17:48:37.394Z,6.47
2018-09-04T17:51:06.330Z,9.07
2018-09-04T17:53:35.051Z,6.03
2018-09-04T17:56:03.935Z,5.60
2018-09-04T17:58:32.960Z,5.13
2018-09-04T18:01:01.849Z,4.90
2018-09-04T18:03:30.573Z,4.83
2018-09-04T18:05:59.387Z,5.57
2018-09-04T18:08:28.129Z,4.73
2018-09-04T18:10:56.961Z,5.63
2018-09-04T18:13:25.701Z,5.83
2018-09-04T18:15:54.401Z,4.80
2018-09-04T18:18:23.126Z,6.83
2018-09-04T18:20:51.917Z,4.57
2018-09-04T18:23:20.733Z,4.57
2018-09-04T18:25:49.767Z,7.47
2018-09-04T18:28:18.523Z,5.07
2018-09-04T18:30:47.261Z,5.43
2018-09-04T18:33:16.997Z,4.47
2018-09-04T18:35:45.767Z,4.30
2018-09-04T18:38:14.503Z,4.57
2018-09-04T18:40:43.242Z,4.60
2018-09-04T18:43:11.974Z,3.97
2018-09-04T18:45:46.877Z,4.00
2018-09-04T18:48:15.798Z,3.50
2018-09-04T18:50:44.546Z,3.67
2018-09-04T18:53:14.386Z,4.00
2018-09-04T18:55:43.079Z,3.97
2018-09-04T18:58:12.216Z,3.70
2018-09-04T19:00:41.222Z,3.70
2018-09-04T19:03:10.030Z,3.90
2018-09-04T19:05:38.986Z,4.73
2018-09-04T19:08:07.730Z,3.60
2018-09-04T19:10:36.446Z,4.40
2018-09-04T19:13:05.282Z,4.00
2018-09-04T19:15:34.301Z,3.73
2018-09-04T19:18:03.028Z,4.40
2018-09-04T19:20:31.754Z,3.60
2018-09-04T19:23:00.503Z,3.53
2018-09-04T19:25:29.239Z,3.70
2018-09-04T19:27:58.077Z,5.73
2018-09-04T19:30:26.832Z,4.00
2018-09-04T19:32:55.639Z,4.07
2018-09-04T19:35:24.321Z,4.57
2018-09-04T19:37:53.014Z,3.50
2018-09-04T19:40:21.766Z,3.73
2018-09-04T19:42:50.521Z,6.93
2018-09-04T19:45:19.259Z,3.80
2018-09-04T19:47:48.011Z,4.00
2018-09-04T19:50:16.777Z,3.77
2018-09-04T19:52:45.550Z,3.73
2018-09-04T19:55:14.317Z,4.57
2018-09-04T19:57:43.053Z,3.70
2018-09-04T20:00:11.989Z,3.70
2018-09-04T20:02:40.735Z,3.37
2018-09-04T20:05:09.919Z,3.80
2018-09-04T20:07:38.804Z,4.03
2018-09-04T20:10:07.694Z,3.93
2018-09-04T20:12:36.417Z,3.77
2018-09-04T20:15:05.192Z,3.77
2018-09-04T20:17:33.899Z,4.63
2018-09-04T20:20:02.693Z,4.00
2018-09-04T20:22:31.393Z,4.60
2018-09-04T20:25:00.175Z,3.90
2018-09-04T20:27:28.873Z,4.47
2018-09-04T20:29:57.655Z,4.50
2018-09-04T20:32:26.466Z,3.93
2018-09-04T20:35:18.863Z,3.43
2018-09-04T20:37:51.496Z,5.00
2018-09-04T20:40:20.233Z,3.80
2018-09-04T20:42:48.946Z,3.73
2018-09-04T20:45:17.745Z,3.70
2018-09-04T20:47:46.496Z,3.83
2018-09-04T20:50:15.214Z,3.60
2018-09-04T20:52:43.919Z,3.90
2018-09-04T20:55:12.670Z,3.80
2018-09-04T20:57:41.538Z,3.70
2018-09-04T21:00:24.072Z,3.30
2018-09-04T21:03:04.194Z,3.67
2018-09-04T21:05:44.348Z,3.60
2018-09-04T21:08:20.890Z,4.20
2018-09-04T21:10:51.012Z,3.80
2018-09-04T21:13:19.775Z,3.57
2018-09-04T21:15:48.584Z,4.13
2018-09-04T21:18:17.354Z,3.80
2018-09-04T21:20:46.124Z,3.80
2018-09-04T21:23:14.827Z,3.67
2018-09-04T21:25:43.566Z,3.60
2018-09-04T21:28:12.324Z,3.67
2018-09-04T21:30:41.080Z,3.70
2018-09-04T21:33:09.832Z,3.73
2018-09-04T21:35:38.554Z,3.90
2018-09-04T21:38:07.274Z,3.70
2018-09-04T21:40:36.031Z,3.93
2018-09-04T21:43:04.856Z,3.70
2018-09-04T21:45:33.585Z,4.10
2018-09-04T21:48:02.298Z,3.70
2018-09-04T21:50:31.037Z,3.83
2018-09-04T21:52:59.770Z,3.80
2018-09-04T21:55:28.510Z,3.97
2018-09-04T21:57:57.352Z,3.90
2018-09-04T22:00:27.343Z,4.17
2018-09-04T22:02:57.385Z,4.23
2018-09-04T22:05:26.720Z,4.03
2018-09-04T22:07:56.835Z,3.93
2018-09-04T22:10:26.617Z,4.03
2018-09-04T22:12:55.537Z,4.23
2018-09-04T22:15:24.686Z,4.03
2018-09-04T22:17:53.445Z,3.83
2018-09-04T22:20:22.167Z,4.10
2018-09-04T22:22:50.896Z,4.07
2018-09-04T22:25:19.631Z,4.03
2018-09-04T22:27:48.333Z,4.40
2018-09-04T22:30:17.082Z,5.40
2018-09-04T22:32:45.830Z,4.10
2018-09-04T22:35:14.618Z,4.27
2018-09-04T22:37:43.338Z,4.00
2018-09-04T22:40:12.091Z,4.43
2018-09-04T22:42:41.240Z,4.23
2018-09-04T22:45:10.330Z,4.30
2018-09-04T22:47:40.947Z,4.13
2018-09-04T22:50:15.388Z,4.37
2018-09-04T22:52:44.090Z,4.23
2018-09-04T22:55:13.748Z,4.60
2018-09-04T22:57:43.292Z,4.40
2018-09-04T23:00:13.136Z,3.80
2018-09-04T23:02:41.879Z,4.33
2018-09-04T23:05:10.728Z,4.43
2018-09-04T23:07:39.458Z,4.00
2018-09-04T23:10:08.342Z,4.33
2018-09-04T23:12:37.040Z,4.03
2018-09-04T23:15:05.832Z,4.23
2018-09-04T23:17:34.534Z,4.57
2018-09-04T23:20:03.295Z,4.27
2018-09-04T23:22:32.005Z,4.40
2018-09-04T23:25:00.762Z,4.57
2018-09-04T23:27:29.492Z,4.27
2018-09-04T23:29:58.191Z,4.20
2018-09-04T23:32:27.023Z,4.20
2018-09-04T23:34:55.747Z,4.40
2018-09-04T23:37:24.480Z,4.27
2018-09-04T23:39:53.279Z,4.50
2018-09-04T23:42:22.009Z,4.53
2018-09-04T23:44:50.721Z,4.43
2018-09-04T23:47:19.457Z,5.63
2018-09-04T23:49:48.181Z,4.57
2018-09-04T23:52:16.987Z,5.17
2018-09-04T23:54:45.721Z,4.73
2018-09-04T23:57:14.453Z,4.70
2018-09-04T23:59:43.187Z,4.80
